sensor_id;sensor_type;location;lat;lon;timestamp;P1;durP1;ratioP1;P2;durP2;ratioP2
12296;SDS011;6211;49.124;9.152;2023-02-28T00:02:24;0.52;;;0.52;;
12296;SDS011;6211;49.124;9.152;2023-02-28T00:04:51;1.17;;;1.02;;
12296;SDS011;6211;49.124;9.152;2023-02-28T00:07:25;0.35;;;0.35;;
12296;SDS011;6211;49.124;9.152;2023-02-28T00:09:53;0.47;;;0.47;;
12296;SDS011;6211;49.124;9.152;2023-02-28T00:12:20;0.90;;;0.87;;
12296;SDS011;6211;49.124;9.152;2023-02-28T00:14:49;1.02;;;1.00;;
12296;SDS011;6211;49.124;9.152;2023-02-28T00:17:16;1.27;;;1.15;;
12296;SDS011;6211;49.124;9.152;2023-02-28T00:19:46;0.47;;;0.47;;
12296;SDS011;6211;49.124;9.152;2023-02-28T00:22:13;1.00;;;1.00;;
12296;SDS011;6211;49.124;9.152;2023-02-28T00:24:40;1.15;;;1.05;;
12296;SDS011;6211;49.124;9.152;2023-02-28T00:27:07;0.93;;;0.93;;
12296;SDS011;6211;49.124;9.152;2023-02-28T00:29:34;1.65;;;1.48;;
12296;SDS011;6211;49.124;9.152;2023-02-28T00:32:03;1.40;;;1.30;;
12296;SDS011;6211;49.124;9.152;2023-02-28T00:34:30;0.60;;;0.60;;
12296;SDS011;6211;49.124;9.152;2023-02-28T00:37:03;1.27;;;1.20;;
12296;SDS011;6211;49.124;9.152;2023-02-28T00:39:30;1.45;;;0.77;;
12296;SDS011;6211;49.124;9.152;2023-02-28T00:41:58;0.93;;;0.85;;
12296;SDS011;6211;49.124;9.152;2023-02-28T00:44:25;1.05;;;0.75;;
12296;SDS011;6211;49.124;9.152;2023-02-28T00:46:52;1.25;;;0.95;;
12296;SDS011;6211;49.124;9.152;2023-02-28T00:49:21;0.60;;;0.60;;
12296;SDS011;6211;49.124;9.152;2023-02-28T00:51:49;0.80;;;0.80;;
12296;SDS011;6211;49.124;9.152;2023-02-28T00:54:16;0.63;;;0.63;;
12296;SDS011;6211;49.124;9.152;2023-02-28T00:56:43;1.17;;;1.08;;
12296;SDS011;6211;49.124;9.152;2023-02-28T00:59:10;0.80;;;0.50;;
12296;SDS011;6211;49.124;9.152;2023-02-28T01:01:38;0.55;;;0.55;;
12296;SDS011;6211;49.124;9.152;2023-02-28T01:04:05;2.78;;;1.50;;
12296;SDS011;6211;49.124;9.152;2023-02-28T01:06:33;1.20;;;1.10;;
12296;SDS011;6211;49.124;9.152;2023-02-28T01:09:01;0.70;;;0.70;;
12296;SDS011;6211;49.124;9.152;2023-02-28T01:11:30;0.95;;;0.90;;
12296;SDS011;6211;49.124;9.152;2023-02-28T01:14:00;0.98;;;0.98;;
12296;SDS011;6211;49.124;9.152;2023-02-28T01:16:28;0.63;;;0.63;;
12296;SDS011;6211;49.124;9.152;2023-02-28T01:18:56;0.82;;;0.82;;
12296;SDS011;6211;49.124;9.152;2023-02-28T01:21:23;0.80;;;0.80;;
12296;SDS011;6211;49.124;9.152;2023-02-28T01:23:52;0.98;;;0.98;;
12296;SDS011;6211;49.124;9.152;2023-02-28T01:26:20;0.73;;;0.73;;
12296;SDS011;6211;49.124;9.152;2023-02-28T01:28:47;0.90;;;0.80;;
12296;SDS011;6211;49.124;9.152;2023-02-28T01:31:16;1.08;;;1.05;;
12296;SDS011;6211;49.124;9.152;2023-02-28T01:33:44;0.73;;;0.68;;
12296;SDS011;6211;49.124;9.152;2023-02-28T01:36:12;1.00;;;1.00;;
12296;SDS011;6211;49.124;9.152;2023-02-28T01:38:39;2.10;;;0.80;;
12296;SDS011;6211;49.124;9.152;2023-02-28T01:41:08;1.23;;;1.00;;
12296;SDS011;6211;49.124;9.152;2023-02-28T01:46:17;2.55;;;1.30;;
12296;SDS011;6211;49.124;9.152;2023-02-28T01:48:45;0.82;;;0.82;;
12296;SDS011;6211;49.124;9.152;2023-02-28T01:51:15;0.50;;;0.50;;
12296;SDS011;6211;49.124;9.152;2023-02-28T01:53:43;0.85;;;0.85;;
12296;SDS011;6211;49.124;9.152;2023-02-28T01:56:14;0.40;;;0.40;;
12296;SDS011;6211;49.124;9.152;2023-02-28T01:58:45;0.50;;;0.50;;
12296;SDS011;6211;49.124;9.152;2023-02-28T02:01:13;0.68;;;0.52;;
12296;SDS011;6211;49.124;9.152;2023-02-28T02:03:46;0.43;;;0.43;;
12296;SDS011;6211;49.124;9.152;2023-02-28T02:06:13;0.65;;;0.65;;
12296;SDS011;6211;49.124;9.152;2023-02-28T02:08:40;1.95;;;1.02;;
12296;SDS011;6211;49.124;9.152;2023-02-28T02:11:07;1.70;;;1.60;;
12296;SDS011;6211;49.124;9.152;2023-02-28T02:13:45;1.67;;;1.58;;
12296;SDS011;6211;49.124;9.152;2023-02-28T02:16:21;1.15;;;0.73;;
12296;SDS011;6211;49.124;9.152;2023-02-28T02:18:52;0.52;;;0.52;;
12296;SDS011;6211;49.124;9.152;2023-02-28T02:24:21;0.85;;;0.85;;
12296;SDS011;6211;49.124;9.152;2023-02-28T02:32:36;1.25;;;1.15;;
12296;SDS011;6211;49.124;9.152;2023-02-28T02:35:13;0.43;;;0.43;;
12296;SDS011;6211;49.124;9.152;2023-02-28T02:37:42;0.68;;;0.68;;
12296;SDS011;6211;49.124;9.152;2023-02-28T02:40:13;0.68;;;0.68;;
12296;SDS011;6211;49.124;9.152;2023-02-28T02:42:42;0.43;;;0.43;;
12296;SDS011;6211;49.124;9.152;2023-02-28T02:45:12;0.93;;;0.93;;
12296;SDS011;6211;49.124;9.152;2023-02-28T02:47:41;0.77;;;0.77;;
12296;SDS011;6211;49.124;9.152;2023-02-28T02:50:11;0.47;;;0.47;;
12296;SDS011;6211;49.124;9.152;2023-02-28T02:52:42;2.38;;;1.58;;
12296;SDS011;6211;49.124;9.152;2023-02-28T02:55:11;1.42;;;1.33;;
12296;SDS011;6211;49.124;9.152;2023-02-28T02:57:40;0.87;;;0.87;;
12296;SDS011;6211;49.124;9.152;2023-02-28T03:00:10;1.60;;;1.50;;
12296;SDS011;6211;49.124;9.152;2023-02-28T03:02:38;1.00;;;1.00;;
12296;SDS011;6211;49.124;9.152;2023-02-28T03:05:07;0.70;;;0.70;;
12296;SDS011;6211;49.124;9.152;2023-02-28T03:07:35;0.88;;;0.85;;
12296;SDS011;6211;49.124;9.152;2023-02-28T03:12:48;0.57;;;0.57;;
12296;SDS011;6211;49.124;9.152;2023-02-28T03:15:19;0.77;;;0.77;;
12296;SDS011;6211;49.124;9.152;2023-02-28T03:17:57;0.93;;;0.93;;
12296;SDS011;6211;49.124;9.152;2023-02-28T03:20:33;0.77;;;0.73;;
12296;SDS011;6211;49.124;9.152;2023-02-28T03:23:04;1.27;;;1.27;;
12296;SDS011;6211;49.124;9.152;2023-02-28T03:25:37;1.33;;;1.23;;
12296;SDS011;6211;49.124;9.152;2023-02-28T03:28:07;0.88;;;0.85;;
12296;SDS011;6211;49.124;9.152;2023-02-28T03:30:38;0.95;;;0.95;;
12296;SDS011;6211;49.124;9.152;2023-02-28T03:33:07;1.27;;;1.17;;
12296;SDS011;6211;49.124;9.152;2023-02-28T03:35:36;0.98;;;0.93;;
12296;SDS011;6211;49.124;9.152;2023-02-28T03:38:05;1.30;;;0.73;;
12296;SDS011;6211;49.124;9.152;2023-02-28T03:40:34;1.63;;;1.52;;
12296;SDS011;6211;49.124;9.152;2023-02-28T03:43:06;1.08;;;1.08;;
12296;SDS011;6211;49.124;9.152;2023-02-28T03:45:36;1.13;;;1.13;;
12296;SDS011;6211;49.124;9.152;2023-02-28T03:48:05;1.10;;;1.10;;
12296;SDS011;6211;49.124;9.152;2023-02-28T03:50:34;1.67;;;1.15;;
12296;SDS011;6211;49.124;9.152;2023-02-28T03:53:04;1.67;;;1.58;;
12296;SDS011;6211;49.124;9.152;2023-02-28T03:55:33;0.35;;;0.35;;
12296;SDS011;6211;49.124;9.152;2023-02-28T03:58:01;0.88;;;0.88;;
12296;SDS011;6211;49.124;9.152;2023-02-28T04:00:31;0.63;;;0.63;;
12296;SDS011;6211;49.124;9.152;2023-02-28T04:03:02;1.27;;;1.10;;
12296;SDS011;6211;49.124;9.152;2023-02-28T04:05:29;3.55;;;1.38;;
12296;SDS011;6211;49.124;9.152;2023-02-28T04:08:03;1.60;;;1.17;;
12296;SDS011;6211;49.124;9.152;2023-02-28T04:10:30;1.10;;;1.10;;
12296;SDS011;6211;49.124;9.152;2023-02-28T04:12:58;0.50;;;0.50;;
12296;SDS011;6211;49.124;9.152;2023-02-28T04:15:25;0.88;;;0.85;;
12296;SDS011;6211;49.124;9.152;2023-02-28T04:17:52;0.95;;;0.95;;
12296;SDS011;6211;49.124;9.152;2023-02-28T04:20:21;0.85;;;0.80;;
12296;SDS011;6211;49.124;9.152;2023-02-28T04:22:48;1.95;;;1.27;;
12296;SDS011;6211;49.124;9.152;2023-02-28T04:25:15;2.22;;;2.03;;
12296;SDS011;6211;49.124;9.152;2023-02-28T04:27:42;1.38;;;1.38;;
12296;SDS011;6211;49.124;9.152;2023-02-28T04:30:10;0.63;;;0.60;;
12296;SDS011;6211;49.124;9.152;2023-02-28T04:32:37;2.78;;;1.85;;
12296;SDS011;6211;49.124;9.152;2023-02-28T04:35:04;2.45;;;1.38;;
12296;SDS011;6211;49.124;9.152;2023-02-28T04:37:33;0.90;;;0.90;;
12296;SDS011;6211;49.124;9.152;2023-02-28T04:40:02;1.70;;;1.60;;
12296;SDS011;6211;49.124;9.152;2023-02-28T04:42:29;0.73;;;0.73;;
12296;SDS011;6211;49.124;9.152;2023-02-28T04:45:00;1.60;;;1.50;;
12296;SDS011;6211;49.124;9.152;2023-02-28T04:47:27;3.33;;;1.88;;
12296;SDS011;6211;49.124;9.152;2023-02-28T04:49:55;1.13;;;1.13;;
12296;SDS011;6211;49.124;9.152;2023-02-28T04:52:22;1.63;;;1.33;;
12296;SDS011;6211;49.124;9.152;2023-02-28T04:54:50;0.50;;;0.50;;
12296;SDS011;6211;49.124;9.152;2023-02-28T04:57:18;1.88;;;1.13;;
12296;SDS011;6211;49.124;9.152;2023-02-28T04:59:45;0.68;;;0.68;;
12296;SDS011;6211;49.124;9.152;2023-02-28T05:02:12;4.28;;;1.25;;
12296;SDS011;6211;49.124;9.152;2023-02-28T05:04:39;0.65;;;0.65;;
12296;SDS011;6211;49.124;9.152;2023-02-28T05:07:06;1.35;;;1.02;;
12296;SDS011;6211;49.124;9.152;2023-02-28T05:09:34;1.67;;;1.25;;
12296;SDS011;6211;49.124;9.152;2023-02-28T05:12:03;1.42;;;1.33;;
12296;SDS011;6211;49.124;9.152;2023-02-28T05:14:30;2.65;;;1.05;;
12296;SDS011;6211;49.124;9.152;2023-02-28T05:16:57;1.48;;;1.38;;
12296;SDS011;6211;49.124;9.152;2023-02-28T05:19:24;1.13;;;1.02;;
12296;SDS011;6211;49.124;9.152;2023-02-28T05:21:52;1.23;;;1.15;;
12296;SDS011;6211;49.124;9.152;2023-02-28T05:24:20;0.88;;;0.68;;
12296;SDS011;6211;49.124;9.152;2023-02-28T05:26:48;1.65;;;1.55;;
12296;SDS011;6211;49.124;9.152;2023-02-28T05:29:18;2.00;;;1.88;;
12296;SDS011;6211;49.124;9.152;2023-02-28T05:31:45;2.50;;;1.40;;
12296;SDS011;6211;49.124;9.152;2023-02-28T05:34:12;1.42;;;1.42;;
12296;SDS011;6211;49.124;9.152;2023-02-28T05:36:41;2.63;;;2.25;;
12296;SDS011;6211;49.124;9.152;2023-02-28T05:39:08;2.10;;;1.85;;
12296;SDS011;6211;49.124;9.152;2023-02-28T05:41:37;1.40;;;1.30;;
12296;SDS011;6211;49.124;9.152;2023-02-28T05:44:05;1.38;;;1.02;;
12296;SDS011;6211;49.124;9.152;2023-02-28T05:46:33;2.42;;;2.20;;
12296;SDS011;6211;49.124;9.152;2023-02-28T05:49:00;1.70;;;1.60;;
12296;SDS011;6211;49.124;9.152;2023-02-28T05:51:27;0.80;;;0.80;;
12296;SDS011;6211;49.124;9.152;2023-02-28T05:53:57;1.10;;;1.10;;
12296;SDS011;6211;49.124;9.152;2023-02-28T05:56:25;1.30;;;1.27;;
12296;SDS011;6211;49.124;9.152;2023-02-28T05:58:52;1.70;;;1.60;;
12296;SDS011;6211;49.124;9.152;2023-02-28T06:01:20;1.35;;;1.10;;
12296;SDS011;6211;49.124;9.152;2023-02-28T06:03:49;0.93;;;0.82;;
12296;SDS011;6211;49.124;9.152;2023-02-28T06:06:16;1.35;;;1.30;;
12296;SDS011;6211;49.124;9.152;2023-02-28T06:08:43;2.08;;;1.33;;
12296;SDS011;6211;49.124;9.152;2023-02-28T06:11:10;2.75;;;1.40;;
12296;SDS011;6211;49.124;9.152;2023-02-28T06:13:38;2.05;;;1.10;;
12296;SDS011;6211;49.124;9.152;2023-02-28T06:16:05;1.95;;;1.63;;
12296;SDS011;6211;49.124;9.152;2023-02-28T06:18:32;0.95;;;0.90;;
12296;SDS011;6211;49.124;9.152;2023-02-28T06:21:00;1.00;;;0.98;;
12296;SDS011;6211;49.124;9.152;2023-02-28T06:23:28;2.22;;;2.03;;
12296;SDS011;6211;49.124;9.152;2023-02-28T06:25:55;1.48;;;1.38;;
12296;SDS011;6211;49.124;9.152;2023-02-28T06:28:23;1.33;;;1.00;;
12296;SDS011;6211;49.124;9.152;2023-02-28T06:30:50;1.95;;;1.35;;
12296;SDS011;6211;49.124;9.152;2023-02-28T06:33:17;1.48;;;1.38;;
12296;SDS011;6211;49.124;9.152;2023-02-28T06:38:14;1.30;;;1.23;;
12296;SDS011;6211;49.124;9.152;2023-02-28T06:40:41;2.72;;;1.92;;
12296;SDS011;6211;49.124;9.152;2023-02-28T06:43:08;3.10;;;2.03;;
12296;SDS011;6211;49.124;9.152;2023-02-28T06:45:40;3.97;;;1.85;;
12296;SDS011;6211;49.124;9.152;2023-02-28T06:48:08;1.50;;;1.40;;
12296;SDS011;6211;49.124;9.152;2023-02-28T06:50:35;1.83;;;1.73;;
12296;SDS011;6211;49.124;9.152;2023-02-28T06:53:02;1.30;;;1.13;;
12296;SDS011;6211;49.124;9.152;2023-02-28T06:55:31;1.88;;;1.73;;
12296;SDS011;6211;49.124;9.152;2023-02-28T06:57:58;1.35;;;1.02;;
12296;SDS011;6211;49.124;9.152;2023-02-28T07:00:25;1.40;;;1.30;;
12296;SDS011;6211;49.124;9.152;2023-02-28T07:02:52;1.52;;;1.42;;
12296;SDS011;6211;49.124;9.152;2023-02-28T07:05:20;1.08;;;1.08;;
12296;SDS011;6211;49.124;9.152;2023-02-28T07:07:47;2.85;;;2.63;;
12296;SDS011;6211;49.124;9.152;2023-02-28T07:10:15;0.90;;;0.90;;
12296;SDS011;6211;49.124;9.152;2023-02-28T07:12:44;2.28;;;1.52;;
12296;SDS011;6211;49.124;9.152;2023-02-28T07:15:11;1.50;;;1.40;;
12296;SDS011;6211;49.124;9.152;2023-02-28T07:17:38;2.22;;;2.08;;
12296;SDS011;6211;49.124;9.152;2023-02-28T07:20:05;5.75;;;2.72;;
12296;SDS011;6211;49.124;9.152;2023-02-28T07:22:33;2.58;;;1.40;;
12296;SDS011;6211;49.124;9.152;2023-02-28T07:25:00;2.35;;;1.55;;
12296;SDS011;6211;49.124;9.152;2023-02-28T07:27:27;3.45;;;1.67;;
12296;SDS011;6211;49.124;9.152;2023-02-28T07:29:56;2.22;;;2.03;;
12296;SDS011;6211;49.124;9.152;2023-02-28T07:32:26;2.58;;;2.35;;
12296;SDS011;6211;49.124;9.152;2023-02-28T07:34:53;2.60;;;2.10;;
12296;SDS011;6211;49.124;9.152;2023-02-28T07:37:21;2.85;;;1.75;;
12296;SDS011;6211;49.124;9.152;2023-02-28T07:39:49;1.85;;;1.73;;
12296;SDS011;6211;49.124;9.152;2023-02-28T07:42:16;2.10;;;1.33;;
12296;SDS011;6211;49.124;9.152;2023-02-28T07:44:43;0.88;;;0.88;;
12296;SDS011;6211;49.124;9.152;2023-02-28T07:47:11;4.95;;;2.63;;
12296;SDS011;6211;49.124;9.152;2023-02-28T07:49:39;1.90;;;1.80;;
12296;SDS011;6211;49.124;9.152;2023-02-28T07:52:06;2.42;;;1.98;;
12296;SDS011;6211;49.124;9.152;2023-02-28T07:54:33;5.32;;;2.08;;
12296;SDS011;6211;49.124;9.152;2023-02-28T07:57:00;1.90;;;1.65;;
12296;SDS011;6211;49.124;9.152;2023-02-28T07:59:28;1.98;;;1.52;;
12296;SDS011;6211;49.124;9.152;2023-02-28T08:01:56;2.45;;;2.25;;
12296;SDS011;6211;49.124;9.152;2023-02-28T08:04:25;2.60;;;1.65;;
12296;SDS011;6211;49.124;9.152;2023-02-28T08:06:53;2.78;;;2.10;;
12296;SDS011;6211;49.124;9.152;2023-02-28T08:09:21;3.13;;;2.50;;
12296;SDS011;6211;49.124;9.152;2023-02-28T08:11:48;5.15;;;3.05;;
12296;SDS011;6211;49.124;9.152;2023-02-28T08:14:15;3.60;;;2.55;;
12296;SDS011;6211;49.124;9.152;2023-02-28T08:16:42;2.03;;;1.73;;
12296;SDS011;6211;49.124;9.152;2023-02-28T08:19:09;2.45;;;2.30;;
12296;SDS011;6211;49.124;9.152;2023-02-28T08:21:38;2.67;;;2.45;;
12296;SDS011;6211;49.124;9.152;2023-02-28T08:24:06;9.23;;;1.88;;
12296;SDS011;6211;49.124;9.152;2023-02-28T08:26:33;3.10;;;2.30;;
12296;SDS011;6211;49.124;9.152;2023-02-28T08:29:00;3.80;;;3.05;;
12296;SDS011;6211;49.124;9.152;2023-02-28T08:31:27;2.80;;;2.22;;
12296;SDS011;6211;49.124;9.152;2023-02-28T08:33:54;4.32;;;2.75;;
12296;SDS011;6211;49.124;9.152;2023-02-28T08:36:24;2.53;;;2.25;;
12296;SDS011;6211;49.124;9.152;2023-02-28T08:38:52;2.58;;;2.35;;
12296;SDS011;6211;49.124;9.152;2023-02-28T08:41:19;2.65;;;1.92;;
12296;SDS011;6211;49.124;9.152;2023-02-28T08:43:46;2.53;;;2.10;;
12296;SDS011;6211;49.124;9.152;2023-02-28T08:46:14;0.93;;;0.93;;
12296;SDS011;6211;49.124;9.152;2023-02-28T08:48:41;3.15;;;1.88;;
12296;SDS011;6211;49.124;9.152;2023-02-28T08:51:09;2.60;;;1.95;;
12296;SDS011;6211;49.124;9.152;2023-02-28T08:53:37;4.68;;;2.90;;
12296;SDS011;6211;49.124;9.152;2023-02-28T08:56:06;2.38;;;1.90;;
12296;SDS011;6211;49.124;9.152;2023-02-28T08:58:34;3.67;;;2.13;;
12296;SDS011;6211;49.124;9.152;2023-02-28T09:01:06;2.10;;;1.92;;
12296;SDS011;6211;49.124;9.152;2023-02-28T09:03:34;2.47;;;2.03;;
12296;SDS011;6211;49.124;9.152;2023-02-28T09:06:01;4.13;;;2.35;;
12296;SDS011;6211;49.124;9.152;2023-02-28T09:08:29;3.03;;;2.78;;
12296;SDS011;6211;49.124;9.152;2023-02-28T09:10:57;4.57;;;3.22;;
12296;SDS011;6211;49.124;9.152;2023-02-28T09:13:26;4.10;;;2.70;;
12296;SDS011;6211;49.124;9.152;2023-02-28T09:15:53;4.43;;;2.25;;
12296;SDS011;6211;49.124;9.152;2023-02-28T09:18:21;3.67;;;2.47;;
12296;SDS011;6211;49.124;9.152;2023-02-28T09:20:48;6.97;;;2.80;;
12296;SDS011;6211;49.124;9.152;2023-02-28T09:23:15;6.93;;;2.85;;
12296;SDS011;6211;49.124;9.152;2023-02-28T09:25:46;3.17;;;2.83;;
12296;SDS011;6211;49.124;9.152;2023-02-28T09:28:15;2.83;;;2.22;;
12296;SDS011;6211;49.124;9.152;2023-02-28T09:30:45;2.65;;;2.45;;
12296;SDS011;6211;49.124;9.152;2023-02-28T09:33:13;3.05;;;2.53;;
12296;SDS011;6211;49.124;9.152;2023-02-28T09:35:40;4.88;;;3.15;;
12296;SDS011;6211;49.124;9.152;2023-02-28T09:38:08;3.25;;;2.95;;
12296;SDS011;6211;49.124;9.152;2023-02-28T09:40:36;3.33;;;2.80;;
12296;SDS011;6211;49.124;9.152;2023-02-28T09:43:03;3.25;;;2.58;;
12296;SDS011;6211;49.124;9.152;2023-02-28T09:45:32;2.53;;;2.15;;
12296;SDS011;6211;49.124;9.152;2023-02-28T09:48:01;4.10;;;2.30;;
12296;SDS011;6211;49.124;9.152;2023-02-28T09:50:31;3.55;;;3.15;;
12296;SDS011;6211;49.124;9.152;2023-02-28T09:52:59;4.38;;;2.70;;
12296;SDS011;6211;49.124;9.152;2023-02-28T09:55:29;1.73;;;1.60;;
12296;SDS011;6211;49.124;9.152;2023-02-28T09:57:58;3.55;;;2.92;;
12296;SDS011;6211;49.124;9.152;2023-02-28T10:00:27;1.92;;;1.83;;
12296;SDS011;6211;49.124;9.152;2023-02-28T10:03:10;4.43;;;2.95;;
12296;SDS011;6211;49.124;9.152;2023-02-28T10:05:47;4.22;;;3.50;;
12296;SDS011;6211;49.124;9.152;2023-02-28T10:08:18;4.43;;;3.45;;
12296;SDS011;6211;49.124;9.152;2023-02-28T10:10:50;2.75;;;2.55;;
12296;SDS011;6211;49.124;9.152;2023-02-28T10:13:22;2.38;;;2.00;;
12296;SDS011;6211;49.124;9.152;2023-02-28T10:15:51;1.88;;;1.65;;
12296;SDS011;6211;49.124;9.152;2023-02-28T10:18:22;4.15;;;3.35;;
12296;SDS011;6211;49.124;9.152;2023-02-28T10:20:51;4.15;;;3.05;;
12296;SDS011;6211;49.124;9.152;2023-02-28T10:23:20;4.05;;;3.05;;
12296;SDS011;6211;49.124;9.152;2023-02-28T10:25:48;3.95;;;3.55;;
12296;SDS011;6211;49.124;9.152;2023-02-28T10:28:17;3.83;;;3.40;;
12296;SDS011;6211;49.124;9.152;2023-02-28T10:30:45;3.85;;;2.80;;
12296;SDS011;6211;49.124;9.152;2023-02-28T10:33:16;3.42;;;3.10;;
12296;SDS011;6211;49.124;9.152;2023-02-28T10:35:46;4.72;;;2.75;;
12296;SDS011;6211;49.124;9.152;2023-02-28T10:38:15;3.97;;;3.55;;
12296;SDS011;6211;49.124;9.152;2023-02-28T10:40:42;4.03;;;3.08;;
12296;SDS011;6211;49.124;9.152;2023-02-28T10:43:17;6.85;;;3.28;;
12296;SDS011;6211;49.124;9.152;2023-02-28T10:45:52;2.53;;;2.33;;
12296;SDS011;6211;49.124;9.152;2023-02-28T10:48:26;3.75;;;3.33;;
12296;SDS011;6211;49.124;9.152;2023-02-28T10:50:55;3.80;;;3.13;;
12296;SDS011;6211;49.124;9.152;2023-02-28T10:53:27;2.13;;;1.92;;
12296;SDS011;6211;49.124;9.152;2023-02-28T10:55:57;2.85;;;2.60;;
12296;SDS011;6211;49.124;9.152;2023-02-28T10:58:26;3.97;;;3.25;;
12296;SDS011;6211;49.124;9.152;2023-02-28T11:00:53;3.88;;;3.13;;
12296;SDS011;6211;49.124;9.152;2023-02-28T11:03:25;4.43;;;3.90;;
12296;SDS011;6211;49.124;9.152;2023-02-28T11:05:52;4.30;;;2.90;;
12296;SDS011;6211;49.124;9.152;2023-02-28T11:08:21;3.47;;;2.95;;
12296;SDS011;6211;49.124;9.152;2023-02-28T11:10:54;5.40;;;3.10;;
12296;SDS011;6211;49.124;9.152;2023-02-28T11:13:24;3.83;;;2.63;;
12296;SDS011;6211;49.124;9.152;2023-02-28T11:15:52;4.35;;;3.03;;
12296;SDS011;6211;49.124;9.152;2023-02-28T11:18:21;5.85;;;3.58;;
12296;SDS011;6211;49.124;9.152;2023-02-28T11:20:49;4.60;;;2.97;;
12296;SDS011;6211;49.124;9.152;2023-02-28T11:23:17;3.35;;;3.05;;
12296;SDS011;6211;49.124;9.152;2023-02-28T11:25:48;5.57;;;3.38;;
12296;SDS011;6211;49.124;9.152;2023-02-28T11:28:23;4.60;;;3.35;;
12296;SDS011;6211;49.124;9.152;2023-02-28T11:30:59;4.60;;;3.72;;
12296;SDS011;6211;49.124;9.152;2023-02-28T11:33:28;5.20;;;3.83;;
12296;SDS011;6211;49.124;9.152;2023-02-28T11:35:57;4.82;;;3.30;;
12296;SDS011;6211;49.124;9.152;2023-02-28T11:38:25;8.02;;;4.07;;
12296;SDS011;6211;49.124;9.152;2023-02-28T11:40:58;4.85;;;3.72;;
12296;SDS011;6211;49.124;9.152;2023-02-28T11:43:32;4.82;;;3.58;;
12296;SDS011;6211;49.124;9.152;2023-02-28T11:46:05;4.57;;;3.00;;
12296;SDS011;6211;49.124;9.152;2023-02-28T11:48:38;7.03;;;3.63;;
12296;SDS011;6211;49.124;9.152;2023-02-28T11:51:10;6.53;;;4.53;;
12296;SDS011;6211;49.124;9.152;2023-02-28T11:53:49;3.70;;;2.92;;
12296;SDS011;6211;49.124;9.152;2023-02-28T11:56:21;6.13;;;3.05;;
12296;SDS011;6211;49.124;9.152;2023-02-28T11:58:52;5.32;;;3.72;;
12296;SDS011;6211;49.124;9.152;2023-02-28T12:01:25;5.50;;;3.85;;
12296;SDS011;6211;49.124;9.152;2023-02-28T12:03:59;4.20;;;3.13;;
12296;SDS011;6211;49.124;9.152;2023-02-28T12:06:31;4.18;;;3.00;;
12296;SDS011;6211;49.124;9.152;2023-02-28T12:09:02;4.25;;;3.55;;
12296;SDS011;6211;49.124;9.152;2023-02-28T12:11:35;5.20;;;3.22;;
12296;SDS011;6211;49.124;9.152;2023-02-28T12:14:16;3.90;;;3.33;;
12296;SDS011;6211;49.124;9.152;2023-02-28T12:16:49;3.78;;;3.33;;
12296;SDS011;6211;49.124;9.152;2023-02-28T12:19:20;5.68;;;4.00;;
12296;SDS011;6211;49.124;9.152;2023-02-28T12:24:41;5.13;;;3.83;;
12296;SDS011;6211;49.124;9.152;2023-02-28T12:27:13;4.18;;;3.65;;
12296;SDS011;6211;49.124;9.152;2023-02-28T12:29:46;8.23;;;3.25;;
12296;SDS011;6211;49.124;9.152;2023-02-28T12:32:16;6.72;;;4.45;;
12296;SDS011;6211;49.124;9.152;2023-02-28T12:34:44;5.22;;;4.28;;
12296;SDS011;6211;49.124;9.152;2023-02-28T12:37:14;4.85;;;4.00;;
12296;SDS011;6211;49.124;9.152;2023-02-28T12:39:43;5.80;;;4.05;;
12296;SDS011;6211;49.124;9.152;2023-02-28T12:42:11;4.88;;;3.83;;
12296;SDS011;6211;49.124;9.152;2023-02-28T12:44:43;4.28;;;3.58;;
12296;SDS011;6211;49.124;9.152;2023-02-28T12:47:13;5.35;;;3.88;;
12296;SDS011;6211;49.124;9.152;2023-02-28T12:49:41;6.70;;;4.25;;
12296;SDS011;6211;49.124;9.152;2023-02-28T12:52:10;8.27;;;4.97;;
12296;SDS011;6211;49.124;9.152;2023-02-28T12:54:40;5.35;;;4.30;;
12296;SDS011;6211;49.124;9.152;2023-02-28T12:57:09;5.80;;;4.15;;
12296;SDS011;6211;49.124;9.152;2023-02-28T12:59:40;4.90;;;4.35;;
12296;SDS011;6211;49.124;9.152;2023-02-28T13:02:21;6.15;;;4.30;;
12296;SDS011;6211;49.124;9.152;2023-02-28T13:05:02;5.38;;;4.15;;
12296;SDS011;6211;49.124;9.152;2023-02-28T13:10:16;5.55;;;4.03;;
12296;SDS011;6211;49.124;9.152;2023-02-28T13:12:47;6.28;;;4.50;;
12296;SDS011;6211;49.124;9.152;2023-02-28T13:15:16;5.70;;;3.67;;
12296;SDS011;6211;49.124;9.152;2023-02-28T13:17:48;6.65;;;4.00;;
12296;SDS011;6211;49.124;9.152;2023-02-28T13:20:17;6.65;;;4.38;;
12296;SDS011;6211;49.124;9.152;2023-02-28T13:22:44;6.07;;;3.58;;
12296;SDS011;6211;49.124;9.152;2023-02-28T13:27:57;6.47;;;4.22;;
12296;SDS011;6211;49.124;9.152;2023-02-28T13:33:20;5.03;;;3.97;;
12296;SDS011;6211;49.124;9.152;2023-02-28T13:35:48;4.60;;;4.10;;
12296;SDS011;6211;49.124;9.152;2023-02-28T13:38:21;6.82;;;4.22;;
12296;SDS011;6211;49.124;9.152;2023-02-28T13:40:55;6.45;;;4.13;;
12296;SDS011;6211;49.124;9.152;2023-02-28T13:43:24;4.20;;;3.40;;
12296;SDS011;6211;49.124;9.152;2023-02-28T13:46:11;5.93;;;4.20;;
12296;SDS011;6211;49.124;9.152;2023-02-28T13:48:40;6.07;;;4.70;;
12296;SDS011;6211;49.124;9.152;2023-02-28T13:53:59;4.50;;;3.80;;
12296;SDS011;6211;49.124;9.152;2023-02-28T13:56:31;4.57;;;3.80;;
12296;SDS011;6211;49.124;9.152;2023-02-28T13:59:04;5.22;;;4.72;;
12296;SDS011;6211;49.124;9.152;2023-02-28T14:01:40;5.38;;;3.83;;
12296;SDS011;6211;49.124;9.152;2023-02-28T14:04:29;5.80;;;3.97;;
12296;SDS011;6211;49.124;9.152;2023-02-28T14:07:00;5.15;;;4.25;;
12296;SDS011;6211;49.124;9.152;2023-02-28T14:09:29;4.65;;;3.72;;
12296;SDS011;6211;49.124;9.152;2023-02-28T14:11:58;4.25;;;3.85;;
12296;SDS011;6211;49.124;9.152;2023-02-28T14:14:55;10.13;;;3.90;;
12296;SDS011;6211;49.124;9.152;2023-02-28T14:17:22;4.65;;;3.67;;
12296;SDS011;6211;49.124;9.152;2023-02-28T14:19:52;6.60;;;4.30;;
12296;SDS011;6211;49.124;9.152;2023-02-28T14:25:08;5.65;;;4.05;;
12296;SDS011;6211;49.124;9.152;2023-02-28T14:27:37;5.38;;;4.10;;
12296;SDS011;6211;49.124;9.152;2023-02-28T14:30:11;4.00;;;3.60;;
12296;SDS011;6211;49.124;9.152;2023-02-28T14:32:41;5.50;;;3.88;;
12296;SDS011;6211;49.124;9.152;2023-02-28T14:35:16;5.35;;;3.72;;
12296;SDS011;6211;49.124;9.152;2023-02-28T14:37:45;4.50;;;3.90;;
12296;SDS011;6211;49.124;9.152;2023-02-28T14:40:14;7.20;;;4.60;;
12296;SDS011;6211;49.124;9.152;2023-02-28T14:42:45;4.70;;;3.72;;
12296;SDS011;6211;49.124;9.152;2023-02-28T14:45:17;5.18;;;4.28;;
12296;SDS011;6211;49.124;9.152;2023-02-28T14:47:44;4.85;;;3.85;;
12296;SDS011;6211;49.124;9.152;2023-02-28T14:50:18;5.60;;;4.22;;
12296;SDS011;6211;49.124;9.152;2023-02-28T14:52:46;4.97;;;3.97;;
12296;SDS011;6211;49.124;9.152;2023-02-28T14:55:14;4.78;;;3.63;;
12296;SDS011;6211;49.124;9.152;2023-02-28T14:57:42;7.28;;;3.83;;
12296;SDS011;6211;49.124;9.152;2023-02-28T15:00:21;4.63;;;3.72;;
12296;SDS011;6211;49.124;9.152;2023-02-28T15:02:49;5.07;;;3.97;;
12296;SDS011;6211;49.124;9.152;2023-02-28T15:05:21;4.35;;;3.65;;
12296;SDS011;6211;49.124;9.152;2023-02-28T15:07:59;5.88;;;4.38;;
12296;SDS011;6211;49.124;9.152;2023-02-28T15:10:27;5.35;;;4.30;;
12296;SDS011;6211;49.124;9.152;2023-02-28T15:12:56;6.35;;;4.35;;
12296;SDS011;6211;49.124;9.152;2023-02-28T15:15:23;6.90;;;4.57;;
12296;SDS011;6211;49.124;9.152;2023-02-28T15:17:53;4.80;;;3.88;;
12296;SDS011;6211;49.124;9.152;2023-02-28T15:20:24;5.82;;;3.90;;
12296;SDS011;6211;49.124;9.152;2023-02-28T15:22:53;6.35;;;4.35;;
12296;SDS011;6211;49.124;9.152;2023-02-28T15:25:21;7.75;;;5.18;;
12296;SDS011;6211;49.124;9.152;2023-02-28T15:27:49;6.50;;;3.75;;
12296;SDS011;6211;49.124;9.152;2023-02-28T15:30:18;7.78;;;4.45;;
12296;SDS011;6211;49.124;9.152;2023-02-28T15:33:01;5.30;;;4.15;;
12296;SDS011;6211;49.124;9.152;2023-02-28T15:35:30;5.32;;;4.15;;
12296;SDS011;6211;49.124;9.152;2023-02-28T15:38:00;5.10;;;3.80;;
12296;SDS011;6211;49.124;9.152;2023-02-28T15:40:28;4.63;;;3.85;;
12296;SDS011;6211;49.124;9.152;2023-02-28T15:43:00;8.23;;;3.92;;
12296;SDS011;6211;49.124;9.152;2023-02-28T15:45:34;5.50;;;3.90;;
12296;SDS011;6211;49.124;9.152;2023-02-28T15:48:03;6.18;;;3.70;;